createdAt,value
2019-05-25T00:00:37.519Z,17.07
2019-05-25T00:03:05.959Z,15.87
2019-05-25T00:05:34.542Z,14.10
2019-05-25T00:08:03.039Z,11.77
2019-05-25T00:10:31.461Z,14.00
2019-05-25T00:13:00.151Z,15.83
2019-05-25T00:15:28.629Z,16.67
2019-05-25T00:17:57.039Z,14.70
2019-05-25T00:20:25.564Z,15.60
2019-05-25T00:22:53.992Z,17.67
2019-05-25T00:25:22.368Z,13.23
2019-05-25T00:27:50.769Z,13.20
2019-05-25T00:30:19.229Z,14.53
2019-05-25T00:32:47.768Z,16.07
2019-05-25T00:35:16.581Z,17.17
2019-05-25T00:37:45.085Z,15.03
2019-05-25T00:40:13.740Z,17.13
2019-05-25T00:42:42.182Z,16.33
2019-05-25T00:45:10.795Z,14.07
2019-05-25T00:47:39.288Z,13.27
2019-05-25T00:50:07.702Z,13.37
2019-05-25T00:52:36.204Z,17.87
2019-05-25T00:55:08.995Z,18.87
2019-05-25T00:57:37.444Z,16.93
2019-05-25T01:00:08.995Z,18.40
2019-05-25T01:02:39.113Z,17.23
2019-05-25T01:05:07.643Z,26.20
2019-05-25T01:07:36.150Z,16.47
2019-05-25T01:10:06.178Z,19.50
2019-05-25T01:12:34.650Z,14.73
2019-05-25T01:15:04.662Z,13.37
2019-05-25T01:17:33.139Z,18.53
2019-05-25T01:20:01.630Z,15.37
2019-05-25T01:22:31.139Z,18.93
2019-05-25T01:24:59.720Z,20.17
2019-05-25T01:27:28.079Z,22.23
2019-05-25T01:29:56.690Z,24.10
2019-05-25T01:32:25.194Z,26.27
2019-05-25T01:34:53.659Z,29.60
2019-05-25T01:37:22.131Z,29.70
2019-05-25T01:39:50.390Z,41.30
2019-05-25T01:42:19.039Z,105.43
2019-05-25T01:44:47.475Z,27.63
2019-05-25T01:47:15.908Z,17.27
2019-05-25T01:49:45.380Z,17.53
2019-05-25T01:52:13.851Z,14.27
2019-05-25T01:54:42.258Z,32.33
2019-05-25T01:57:10.600Z,19.20
2019-05-25T01:59:39.082Z,39.83
2019-05-25T02:02:07.508Z,15.87
2019-05-25T02:04:35.898Z,20.33
2019-05-25T02:07:04.563Z,23.40
2019-05-25T02:09:32.992Z,30.87
2019-05-25T02:12:01.476Z,34.80
2019-05-25T02:14:29.910Z,87.97
2019-05-25T02:16:58.290Z,39.43
2019-05-25T02:19:26.827Z,76.47
2019-05-25T02:21:55.330Z,23.73
2019-05-25T02:24:23.819Z,81.73
2019-05-25T02:26:52.261Z,109.10
2019-05-25T02:29:20.600Z,76.60
2019-05-25T02:31:49.140Z,128.87
2019-05-25T02:34:17.649Z,139.23
2019-05-25T02:36:46.204Z,96.27
2019-05-25T02:39:14.602Z,100.73
2019-05-25T02:41:43.127Z,109.87
2019-05-25T02:44:11.670Z,36.33
2019-05-25T02:46:40.159Z,16.83
2019-05-25T02:49:09.586Z,23.17
2019-05-25T02:51:38.309Z,23.43
2019-05-25T02:54:06.748Z,41.57
2019-05-25T02:56:35.227Z,112.27
2019-05-25T02:59:03.719Z,48.40
2019-05-25T03:01:32.160Z,86.43
2019-05-25T03:04:00.649Z,27.77
2019-05-25T03:06:29.587Z,21.33
2019-05-25T03:08:57.965Z,13.57
2019-05-25T03:11:28.375Z,20.73
2019-05-25T03:13:57.840Z,15.47
2019-05-25T03:16:26.293Z,17.37
2019-05-25T03:18:54.758Z,18.47
2019-05-25T03:21:24.228Z,17.03
2019-05-25T03:23:52.614Z,18.67
2019-05-25T03:26:21.071Z,16.27
2019-05-25T03:28:49.446Z,12.65
2019-05-25T03:31:17.924Z,17.27
2019-05-25T03:33:46.335Z,19.35
2019-05-25T03:36:14.944Z,17.07
2019-05-25T03:38:44.494Z,18.90
2019-05-25T03:41:12.929Z,12.58
2019-05-25T03:43:41.360Z,15.35
2019-05-25T03:46:09.843Z,16.52
2019-05-25T03:48:38.269Z,15.68
2019-05-25T03:51:06.837Z,12.10
2019-05-25T03:53:35.291Z,14.58
2019-05-25T03:56:06.199Z,11.18
2019-05-25T03:58:33.779Z,14.93
2019-05-25T04:01:02.258Z,14.00
2019-05-25T04:03:30.574Z,12.53
2019-05-25T04:05:59.132Z,15.25
2019-05-25T04:08:27.579Z,16.62
2019-05-25T04:10:55.923Z,17.45
2019-05-25T04:13:24.450Z,13.48
2019-05-25T04:15:52.941Z,14.85
2019-05-25T04:18:21.315Z,14.75
2019-05-25T04:20:49.719Z,16.40
2019-05-25T04:23:18.145Z,14.13
2019-05-25T04:25:46.536Z,17.62
2019-05-25T04:28:15.062Z,13.38
2019-05-25T04:30:43.591Z,16.97
2019-05-25T04:33:12.180Z,15.63
2019-05-25T04:35:40.570Z,16.12
2019-05-25T04:38:09.048Z,13.28
2019-05-25T04:40:37.439Z,13.03
2019-05-25T04:43:06.088Z,14.85
2019-05-25T04:45:34.446Z,12.75
2019-05-25T04:48:02.959Z,15.08
2019-05-25T04:50:31.459Z,18.07
2019-05-25T04:52:59.989Z,12.23
2019-05-25T04:55:28.482Z,12.23
2019-05-25T04:57:56.839Z,16.45
2019-05-25T05:00:25.553Z,17.07
2019-05-25T05:02:54.230Z,15.43
2019-05-25T05:05:22.594Z,15.93
2019-05-25T05:07:51.060Z,15.18
2019-05-25T05:10:19.772Z,15.00
2019-05-25T05:12:49.231Z,13.88
2019-05-25T05:15:17.720Z,14.15
2019-05-25T05:17:46.588Z,15.28
2019-05-25T05:20:15.007Z,15.23
2019-05-25T05:22:43.471Z,15.20
2019-05-25T05:25:12.449Z,15.50
2019-05-25T05:27:41.140Z,14.93
2019-05-25T05:30:09.799Z,12.35
2019-05-25T05:32:38.570Z,15.98
2019-05-25T05:35:07.349Z,10.82
2019-05-25T05:37:36.388Z,11.88
2019-05-25T05:40:06.238Z,14.30
2019-05-25T05:42:35.848Z,14.15
2019-05-25T05:45:04.988Z,14.58
2019-05-25T05:47:34.802Z,13.30
2019-05-25T05:50:03.662Z,12.75
2019-05-25T05:52:33.591Z,16.10
2019-05-25T05:55:02.527Z,11.35
2019-05-25T05:57:30.968Z,14.30
2019-05-25T05:59:59.550Z,10.80
2019-05-25T06:02:28.003Z,13.38
2019-05-25T06:04:56.401Z,8.43
2019-05-25T06:07:27.435Z,9.30
2019-05-25T06:09:54.777Z,13.10
2019-05-25T06:12:23.229Z,10.18
2019-05-25T06:14:51.772Z,8.90
2019-05-25T06:17:20.309Z,9.45
2019-05-25T06:19:48.739Z,11.83
2019-05-25T06:22:17.229Z,13.05
2019-05-25T06:24:45.722Z,11.08
2019-05-25T06:27:26.286Z,13.32
2019-05-25T06:29:44.156Z,10.55
2019-05-25T06:32:12.631Z,8.20
2019-05-25T06:34:41.106Z,8.35
2019-05-25T06:37:09.589Z,10.32
2019-05-25T06:39:38.056Z,8.98
2019-05-25T06:42:06.611Z,9.88
2019-05-25T06:44:35.136Z,10.82
2019-05-25T06:47:04.394Z,7.42
2019-05-25T06:49:32.859Z,12.33
2019-05-25T06:52:01.330Z,8.35
2019-05-25T06:54:29.791Z,10.68
2019-05-25T06:56:58.480Z,81.00
2019-05-25T06:59:27.957Z,74.05
2019-05-25T07:01:56.442Z,148.10
2019-05-25T07:04:24.899Z,31.50
2019-05-25T07:06:53.400Z,7.45
2019-05-25T07:09:21.887Z,6.20
2019-05-25T07:11:50.294Z,9.90
2019-05-25T07:14:18.681Z,11.40
2019-05-25T07:16:47.093Z,10.05
2019-05-25T07:19:15.519Z,6.67
2019-05-25T07:21:43.922Z,12.13
2019-05-25T07:24:12.441Z,7.47
2019-05-25T07:26:40.899Z,8.98
2019-05-25T07:29:09.309Z,8.90
2019-05-25T07:31:37.760Z,10.15
2019-05-25T07:34:06.364Z,7.95
2019-05-25T07:36:35.602Z,10.72
2019-05-25T07:39:05.442Z,7.10
2019-05-25T07:41:33.948Z,9.78
2019-05-25T07:44:03.359Z,8.85
2019-05-25T07:46:31.927Z,11.78
2019-05-25T07:49:00.430Z,11.48
2019-05-25T07:51:28.838Z,9.50
2019-05-25T07:53:57.299Z,9.43
2019-05-25T07:56:25.746Z,9.95
2019-05-25T07:58:54.179Z,10.60
2019-05-25T08:01:22.578Z,10.60
2019-05-25T08:03:51.246Z,16.07
2019-05-25T08:06:19.829Z,11.18
2019-05-25T08:08:48.159Z,11.35
2019-05-25T08:11:16.659Z,13.28
2019-05-25T08:13:45.119Z,30.80
2019-05-25T08:16:13.588Z,54.67
2019-05-25T08:18:41.971Z,94.52
2019-05-25T08:21:11.546Z,11.55
2019-05-25T08:23:39.958Z,7.30
2019-05-25T08:26:08.504Z,13.25
2019-05-25T08:28:37.053Z,10.43
2019-05-25T08:31:05.650Z,15.00
2019-05-25T08:33:34.271Z,19.35
2019-05-25T08:36:02.750Z,7.80
2019-05-25T08:38:31.123Z,56.63
2019-05-25T08:40:59.570Z,31.52
2019-05-25T08:43:28.118Z,48.95
2019-05-25T08:45:56.524Z,43.85
2019-05-25T08:48:24.951Z,123.45
2019-05-25T08:50:53.494Z,5.97
2019-05-25T08:53:40.499Z,10.80
2019-05-25T08:55:57.655Z,9.65
2019-05-25T08:58:26.015Z,10.45
2019-05-25T09:00:54.863Z,10.40
2019-05-25T09:03:23.478Z,10.32
2019-05-25T09:05:51.947Z,10.55
2019-05-25T09:08:20.494Z,11.60
2019-05-25T09:10:48.995Z,11.80
2019-05-25T09:13:17.508Z,11.48
2019-05-25T09:15:45.971Z,10.03
2019-05-25T09:18:14.387Z,8.30
2019-05-25T09:20:43.082Z,20.02
2019-05-25T09:23:11.978Z,37.03
2019-05-25T09:25:40.972Z,140.80
2019-05-25T09:28:11.118Z,147.10
2019-05-25T09:30:39.499Z,145.35
2019-05-25T09:33:07.927Z,140.07
2019-05-25T09:35:36.831Z,165.35
2019-05-25T09:38:05.200Z,145.28
2019-05-25T09:40:33.582Z,135.12
2019-05-25T09:43:02.093Z,143.65
2019-05-25T09:45:30.579Z,143.75
2019-05-25T09:47:59.131Z,141.20
2019-05-25T09:50:27.659Z,9.88
2019-05-25T09:52:56.094Z,14.13
2019-05-25T09:55:24.501Z,16.07
2019-05-25T09:57:53.058Z,87.10
2019-05-25T10:00:21.722Z,11.38
2019-05-25T10:02:50.179Z,7.62
2019-05-25T10:05:18.686Z,9.43
2019-05-25T10:07:47.159Z,7.22
2019-05-25T10:10:15.616Z,11.35
2019-05-25T10:12:45.688Z,10.88
2019-05-25T10:15:14.052Z,7.10
2019-05-25T10:17:42.496Z,10.53
2019-05-25T10:20:11.106Z,8.25
2019-05-25T10:22:39.637Z,12.58
2019-05-25T10:25:09.307Z,64.25
2019-05-25T10:27:38.940Z,8.98
2019-05-25T10:30:07.932Z,7.40
2019-05-25T10:32:36.340Z,9.20
2019-05-25T10:35:06.086Z,5.70
2019-05-25T10:37:34.602Z,8.88
2019-05-25T10:40:04.327Z,9.18
2019-05-25T10:42:32.811Z,6.15
2019-05-25T10:45:01.147Z,6.28
2019-05-25T10:47:29.761Z,6.87
2019-05-25T10:49:58.232Z,7.33
2019-05-25T10:52:26.682Z,9.25
2019-05-25T10:54:55.137Z,8.13
2019-05-25T10:57:23.598Z,8.93
2019-05-25T10:59:53.437Z,8.10
2019-05-25T11:02:22.238Z,7.60
2019-05-25T11:04:50.872Z,6.60
2019-05-25T11:07:19.289Z,5.58
2019-05-25T11:09:47.714Z,10.48
2019-05-25T11:12:17.182Z,7.65
2019-05-25T11:14:45.667Z,11.40
2019-05-25T11:17:14.127Z,7.53
2019-05-25T11:19:42.692Z,7.70
2019-05-25T11:22:11.409Z,8.23
2019-05-25T11:24:39.907Z,9.45
2019-05-25T11:30:23.964Z,6.95
2019-05-25T11:32:52.365Z,8.73
2019-05-25T11:35:20.886Z,10.00
2019-05-25T11:37:49.349Z,7.62
2019-05-25T11:40:17.831Z,10.03
2019-05-25T11:42:46.122Z,6.90
2019-05-25T11:45:15.017Z,9.03
2019-05-25T11:47:43.372Z,9.93
2019-05-25T11:50:13.479Z,7.65
2019-05-25T11:52:42.073Z,8.30
2019-05-25T11:55:11.211Z,9.25
2019-05-25T11:57:39.602Z,11.00
2019-05-25T12:00:23.730Z,7.78
2019-05-25T12:02:39.001Z,11.57
2019-05-25T12:05:08.443Z,6.47
2019-05-25T12:07:36.886Z,8.85
2019-05-25T12:10:09.865Z,42.80
2019-05-25T12:12:38.274Z,157.72
2019-05-25T12:15:07.039Z,185.48
2019-05-25T12:17:35.445Z,10.10
2019-05-25T12:20:04.547Z,9.33
2019-05-25T12:22:32.936Z,8.88
2019-05-25T12:25:01.389Z,10.58
2019-05-25T12:27:29.971Z,12.68
2019-05-25T12:29:58.383Z,10.13
2019-05-25T12:32:28.061Z,12.85
2019-05-25T12:34:56.461Z,8.53
2019-05-25T12:37:28.012Z,13.22
2019-05-25T12:39:56.523Z,73.25
2019-05-25T12:42:24.966Z,160.15
2019-05-25T12:48:10.023Z,148.55
2019-05-25T12:53:53.995Z,97.92
2019-05-25T12:56:22.479Z,147.43
2019-05-25T12:58:50.919Z,154.70
2019-05-25T13:04:34.952Z,150.10
2019-05-25T13:10:08.072Z,145.70
2019-05-25T13:15:52.007Z,216.33
2019-05-25T13:18:20.570Z,153.30
2019-05-25T13:20:49.025Z,199.15
2019-05-25T13:26:33.151Z,139.28
2019-05-25T13:32:16.797Z,135.78
2019-05-25T13:38:01.142Z,136.37
2019-05-25T13:40:29.616Z,135.35
2019-05-25T13:42:57.994Z,139.30
2019-05-25T13:45:26.442Z,141.92
2019-05-25T13:47:56.162Z,137.80
2019-05-25T13:50:24.656Z,136.40
2019-05-25T13:52:53.102Z,139.50
2019-05-25T13:55:21.671Z,136.07
2019-05-25T14:01:06.380Z,135.28
2019-05-25T14:06:50.824Z,134.57
2019-05-25T14:12:36.007Z,146.30
2019-05-25T14:18:21.304Z,111.12
2019-05-25T14:24:06.728Z,37.40
2019-05-25T14:26:35.290Z,139.85
2019-05-25T14:32:08.640Z,144.87
2019-05-25T14:34:37.080Z,138.55
2019-05-25T14:37:05.527Z,182.77
2019-05-25T14:39:33.937Z,131.07
2019-05-25T14:42:02.767Z,132.65
2019-05-25T14:44:31.205Z,128.42
2019-05-25T14:46:59.698Z,21.75
2019-05-25T14:49:28.126Z,19.25
2019-05-25T14:51:56.619Z,17.65
2019-05-25T14:54:25.176Z,84.50
2019-05-25T14:56:53.573Z,107.63
2019-05-25T15:02:37.648Z,136.03
2019-05-25T15:08:22.885Z,138.57
2019-05-25T15:10:51.427Z,147.47
2019-05-25T15:13:19.911Z,36.75
2019-05-25T15:15:48.471Z,16.42
2019-05-25T15:21:33.170Z,129.03
2019-05-25T15:24:01.759Z,126.45
2019-05-25T15:26:30.187Z,136.07
2019-05-25T15:28:58.666Z,138.12
2019-05-25T15:34:46.396Z,136.75
2019-05-25T15:40:29.172Z,131.25
2019-05-25T15:42:58.059Z,147.72
2019-05-25T15:45:27.612Z,155.85
2019-05-25T15:47:56.190Z,134.55
2019-05-25T15:50:24.779Z,147.50
2019-05-25T15:52:56.333Z,153.95
2019-05-25T15:55:23.407Z,150.87
2019-05-25T15:57:51.880Z,129.42
2019-05-25T16:00:21.961Z,125.60
2019-05-25T16:02:50.380Z,131.65
2019-05-25T16:05:19.095Z,193.55
2019-05-25T16:07:49.207Z,142.15
2019-05-25T16:10:17.640Z,169.97
2019-05-25T16:12:47.036Z,97.42
2019-05-25T16:15:17.018Z,146.55
2019-05-25T16:17:45.502Z,197.98
2019-05-25T16:20:15.453Z,97.67
2019-05-25T16:22:43.939Z,89.35
2019-05-25T16:25:12.402Z,45.55
2019-05-25T16:27:40.902Z,64.20
2019-05-25T16:30:09.291Z,67.35
2019-05-25T16:35:42.240Z,80.10
2019-05-25T16:41:26.568Z,139.72
2019-05-25T16:47:12.262Z,58.80
2019-05-25T16:49:42.878Z,55.33
2019-05-25T16:55:26.879Z,102.65
2019-05-25T16:57:55.311Z,131.72
2019-05-25T17:00:25.263Z,115.77
2019-05-25T17:02:53.740Z,25.82
2019-05-25T17:05:22.079Z,21.23
2019-05-25T17:07:50.480Z,10.08
2019-05-25T17:10:18.948Z,11.18
2019-05-25T17:12:47.290Z,9.93
2019-05-25T17:15:15.811Z,15.60
2019-05-25T17:17:44.451Z,19.98
2019-05-25T17:20:13.083Z,13.03
2019-05-25T17:22:41.571Z,8.35
2019-05-25T17:25:10.320Z,8.93
2019-05-25T17:27:38.637Z,11.53
2019-05-25T17:33:24.039Z,10.13
2019-05-25T17:35:52.512Z,7.00
2019-05-25T17:38:21.027Z,12.25
2019-05-25T17:40:49.405Z,11.83
2019-05-25T17:46:33.983Z,12.98
2019-05-25T17:49:02.488Z,10.32
2019-05-25T17:51:31.098Z,10.78
2019-05-25T17:53:59.467Z,11.40
2019-05-25T17:56:27.903Z,13.22
2019-05-25T17:58:56.514Z,12.35
2019-05-25T18:01:24.968Z,10.45
2019-05-25T18:04:06.687Z,9.90
2019-05-25T18:06:23.340Z,13.93
2019-05-25T18:08:51.774Z,9.60
2019-05-25T18:14:48.451Z,10.72
2019-05-25T18:17:16.890Z,10.60
2019-05-25T18:19:45.364Z,16.93
2019-05-25T18:22:13.840Z,12.37
2019-05-25T18:27:58.370Z,10.70
2019-05-25T18:30:27.066Z,10.23
2019-05-25T18:32:55.409Z,8.70
2019-05-25T18:35:23.846Z,9.35
2019-05-25T18:37:52.363Z,9.05
2019-05-25T18:40:20.956Z,11.90
2019-05-25T18:42:49.420Z,9.63
2019-05-25T18:48:34.495Z,11.00
2019-05-25T18:51:05.048Z,10.68
2019-05-25T19:23:16.004Z,10.50
2019-05-25T19:31:57.960Z,11.38
2019-05-25T19:34:58.609Z,11.90
2019-05-25T19:37:25.039Z,11.18
2019-05-25T19:40:07.676Z,12.10
2019-05-25T19:42:43.161Z,12.82
2019-05-25T19:45:22.462Z,12.63
2019-05-25T19:48:24.079Z,10.75
2019-05-25T19:51:24.726Z,9.70
2019-05-25T19:54:17.684Z,10.98
2019-05-25T20:07:17.439Z,11.30
2019-05-25T20:10:26.357Z,11.00
2019-05-25T20:16:42.322Z,11.03
2019-05-25T20:22:51.639Z,12.57
2019-05-25T20:32:01.163Z,13.97
2019-05-25T20:34:33.230Z,13.43
2019-05-25T20:37:03.578Z,10.47
2019-05-25T20:39:34.579Z,9.47
2019-05-25T20:42:05.329Z,11.23
2019-05-25T20:47:49.400Z,14.83
2019-05-25T20:50:17.863Z,13.90
2019-05-25T20:53:03.209Z,13.23
2019-05-25T20:59:05.828Z,16.00
2019-05-25T21:05:17.162Z,12.90
2019-05-25T21:08:24.476Z,11.70
2019-05-25T21:13:49.668Z,17.73
2019-05-25T21:19:33.878Z,13.47
2019-05-25T21:25:18.648Z,12.43
2019-05-25T21:31:04.077Z,17.63
2019-05-25T21:33:35.422Z,15.23
2019-05-25T21:39:20.964Z,9.83
2019-05-25T21:42:00.659Z,16.70
2019-05-25T21:44:31.309Z,14.87
2019-05-25T21:47:00.268Z,13.27
2019-05-25T21:49:28.890Z,12.27
2019-05-25T21:51:57.374Z,12.33
2019-05-25T21:54:25.819Z,14.20
2019-05-25T21:56:54.555Z,12.00
2019-05-25T21:59:23.119Z,10.73
2019-05-25T22:01:51.634Z,11.77
2019-05-25T22:07:01.370Z,15.40
2019-05-25T22:09:29.842Z,12.63
2019-05-25T22:11:58.319Z,13.47
2019-05-25T22:14:26.810Z,15.60
2019-05-25T22:16:55.284Z,12.97
2019-05-25T22:19:23.711Z,13.90
2019-05-25T22:21:52.245Z,13.07
2019-05-25T22:24:20.588Z,13.77
2019-05-25T22:26:49.102Z,13.20
2019-05-25T22:29:17.524Z,11.50
2019-05-25T22:31:46.062Z,12.80
2019-05-25T22:34:14.466Z,12.70
2019-05-25T22:36:43.150Z,15.87
2019-05-25T22:39:11.625Z,20.00
2019-05-25T22:41:40.045Z,14.67
2019-05-25T22:44:08.618Z,11.70
2019-05-25T22:46:37.052Z,17.00
2019-05-25T22:49:05.438Z,12.27
2019-05-25T22:51:33.810Z,15.00
2019-05-25T22:54:02.325Z,17.37
2019-05-25T22:56:30.789Z,14.57
2019-05-25T22:58:59.167Z,38.90
2019-05-25T23:01:27.732Z,12.40
2019-05-25T23:03:56.228Z,13.40
2019-05-25T23:06:24.656Z,11.63
2019-05-25T23:08:53.095Z,12.30
2019-05-25T23:11:21.482Z,11.27
2019-05-25T23:13:49.920Z,13.03
2019-05-25T23:16:18.378Z,11.03
2019-05-25T23:18:46.788Z,15.33
2019-05-25T23:21:15.209Z,15.60
2019-05-25T23:23:43.547Z,16.07
2019-05-25T23:26:12.093Z,10.60
2019-05-25T23:28:40.547Z,12.23
2019-05-25T23:31:08.972Z,11.10
2019-05-25T23:33:37.370Z,19.53
2019-05-25T23:36:05.802Z,23.57
2019-05-25T23:38:34.422Z,30.13
2019-05-25T23:41:02.831Z,13.63
2019-05-25T23:43:31.324Z,15.17
2019-05-25T23:45:59.911Z,13.07
2019-05-25T23:48:28.403Z,17.33
2019-05-25T23:50:56.895Z,15.47
2019-05-25T23:53:25.278Z,16.63
2019-05-25T23:55:53.753Z,25.80
2019-05-25T23:58:22.229Z,17.23
